This demonstration page uses our WeatherBlox Daily Observations layout. Learn more.

Left ArrowRight Arrow

Hourly Observations for September 12, 2015

Temp ( °F °C ) Dew Point ( °F °C ) Humidity (%) Winds ( mph kmh ) Pressure ( in mb ) Visibility ( mi km ) Precip ( " mm )
12:51 am 00:51 Clear 74 23.3 53 11.7 48 48 E 6 9 29.9 1013 10 16.0934 0 0
1:51 am 01:51 Clear 74 23.3 53 11.7 48 48 ESE 7 11 29.89 1012 10 16.0934 0 0
2:51 am 02:51 Clear 74 23.3 54 12.2 50 50 SSE 8 13 29.89 1012 10 16.0934 0 0
3:51 am 03:51 Clear 73 22.8 55 12.8 53 53 SE 6 9 29.88 1012 10 16.0934 0 0
4:51 am 04:51 Clear 73 22.8 55 12.8 53 53 SSE 8 13 29.9 1013 10 16.0934 0 0
5:51 am 05:51 Clear 71 21.7 55 12.8 57 57 SSE 8 13 29.92 1013 10 16.0934 0 0
6:51 am 06:51 Sunny 73 22.8 56 13.3 55 55 E 7 11 29.95 1014 10 16.0934 0 0
7:51 am 07:51 Sunny 76 24.4 57 13.9 52 52 SSE 9 15 29.96 1015 10 16.0934 0 0
8:51 am 08:51 Sunny 82 27.8 56 13.3 41 41 SSE 10 17 29.96 1015 10 16.0934 0 0
9:51 am 09:51 Sunny 85 29.4 56 13.3 37 37 SE 8 13 29.96 1015 10 16.0934 0 0
10:51 am 10:51 Sunny 90 32.2 54 12.2 29 29 ESE 5 7 29.94 1014 10 16.0934 0 0
11:51 am 11:51 Sunny 91 32.8 54 12.2 28 28 S 9 15 29.91 1013 10 16.0934 0 0
12:51 pm 12:51 Sunny 94 34.4 52 11.1 24 24 S 8 13 29.88 1012 10 16.0934 0 0
1:51 pm 13:51 Sunny 95 35 52 11.1 23 23 SE 6 9 29.83 1010 10 16.0934 0 0
2:51 pm 14:51 Sunny 96 35.6 50 10 21 21 SSW 9 15 29.79 1009 10 16.0934 0 0
3:51 pm 15:51 Sunny 96 35.6 43 6.1 16 16 SSE 6 9 29.76 1008 10 16.0934 0 0
4:51 pm 16:51 Sunny 96 35.6 42 5.6 15 15 Calm 29.76 1008 10 16.0934 0 0
5:51 pm 17:51 Sunny 94 34.4 42 5.6 17 17 W 3 6 29.77 1008 10 16.0934 0 0
6:51 pm 18:51 Clear 88 31.1 43 6.1 21 21 NNW 7 11 29.78 1008 10 16.0934 0 0
7:51 pm 19:51 Clear 85 29.4 46 7.8 26 26 WNW 6 9 29.79 1009 10 16.0934 0 0
8:51 pm 20:51 Clear 83 28.3 50 10 32 32 NW 6 9 29.8 1009 10 16.0934 0 0
9:51 pm 21:51 Clear 83 28.3 49 9.4 31 31 NNW 3 6 29.8 1009 10 16.0934 0 0
10:51 pm 22:51 Clear 79 26.1 49 9.4 35 35 Calm 29.8 1009 10 16.0934 0 0
11:51 pm 23:51 Clear 77 25 50 10 39 39 SSW 6 9 29.81 1010 10 16.0934 0 0

Powered by AerisWeather